Time;durP1;ratioP1;P1;durP2;ratioP2;P2;SDS_P1;SDS_P2;PMS_P1;PMS_P2;Temp;Humidity;BMP_temperature;BMP_pressure;BME280_temperature;BME280_humidity;BME280_pressure;Samples;Min_cycle;Max_cycle;Signal;HPM_P1;HPM_P2
2023/08/15 00:00:22;;;;;;;0.40;0.30;;;;;;;22.84;63.31;95421.34;5089619;28;20925;-58
2023/08/15 00:02:50;;;;;;;0.40;0.30;;;;;;;22.66;63.66;95428.16;5114612;28;20436;-58
2023/08/15 00:05:19;;;;;;;0.80;0.53;;;;;;;22.49;63.55;95380.53;5114994;28;20453;-58
2023/08/15 00:07:48;;;;;;;0.60;0.40;;;;;;;22.66;63.81;95423.53;5114059;28;20469;-58
2023/08/15 00:10:16;;;;;;;0.57;0.40;;;;;;;22.67;64.51;95408.09;5115136;28;20428;-59
2023/08/15 00:12:45;;;;;;;0.40;0.30;;;;;;;22.68;63.58;95413.19;5113372;28;20439;-59
2023/08/15 00:15:14;;;;;;;1.17;0.80;;;;;;;22.40;64.01;95406.91;5114929;28;20443;-58
2023/08/15 00:17:43;;;;;;;0.60;0.30;;;;;;;22.60;64.31;95405.97;5114568;28;20536;-58
2023/08/15 00:20:12;;;;;;;0.67;0.67;;;;;;;22.57;63.86;95401.25;5114475;28;20440;-59
2023/08/15 00:22:40;;;;;;;0.60;0.60;;;;;;;22.40;63.58;95403.44;5114407;28;20488;-58
2023/08/15 00:25:09;;;;;;;0.50;0.30;;;;;;;22.41;63.66;95402.31;5114551;28;20800;-59
2023/08/15 00:27:37;;;;;;;0.70;0.40;;;;;;;22.51;64.29;95402.63;5114350;28;20783;-58
2023/08/15 00:30:06;;;;;;;0.73;0.60;;;;;;;22.42;64.03;95401.97;5114521;28;20953;-59
2023/08/15 00:32:36;;;;;;;0.50;0.47;;;;;;;22.44;62.71;95407.03;5114388;28;20515;-58
2023/08/15 00:35:05;;;;;;;0.63;0.60;;;;;;;22.18;62.67;95398.53;5114011;28;20501;-59
2023/08/15 00:37:34;;;;;;;0.77;0.77;;;;;;;21.89;63.17;95396.88;5113282;28;20442;-59
2023/08/15 00:40:03;;;;;;;1.00;0.70;;;;;;;21.86;63.48;95400.25;5114091;28;20968;-58
2023/08/15 00:42:31;;;;;;;6.63;0.80;;;;;;;21.97;63.85;95398.66;5114046;28;20816;-59
2023/08/15 00:44:59;;;;;;;2.30;1.23;;;;;;;21.99;63.12;95397.22;5113954;28;20436;-58
2023/08/15 00:47:28;;;;;;;0.60;0.50;;;;;;;22.04;64.02;95388.09;5113805;28;20440;-60
2023/08/15 00:49:58;;;;;;;0.70;0.70;;;;;;;22.17;64.33;95389.66;5113731;28;20501;-59
2023/08/15 00:52:27;;;;;;;0.63;0.60;;;;;;;22.18;63.76;95391.22;5114010;28;20436;-59
2023/08/15 00:54:56;;;;;;;0.60;0.60;;;;;;;22.17;63.06;95378.84;5114266;28;20471;-59
2023/08/15 00:57:24;;;;;;;0.63;0.40;;;;;;;22.39;64.18;95389.13;5113880;28;20496;-59
2023/08/15 00:59:52;;;;;;;0.50;0.40;;;;;;;22.30;62.93;95380.41;5113771;28;20514;-59
2023/08/15 01:02:21;;;;;;;0.60;0.30;;;;;;;21.34;64.04;95228.31;5113024;28;20446;-59
2023/08/15 01:04:50;;;;;;;0.50;0.43;;;;;;;22.27;62.72;95381.06;5113591;28;20443;-59
2023/08/15 01:07:19;;;;;;;0.90;0.90;;;;;;;22.15;63.54;95383.81;5113495;28;20436;-60
2023/08/15 01:09:48;;;;;;;0.87;0.70;;;;;;;22.16;63.45;95373.78;5113198;28;20431;-59
2023/08/15 01:12:26;;;;;;;0.60;0.40;;;;;;;22.11;62.33;95377.53;5113863;28;20443;-59
2023/08/15 01:14:59;;;;;;;0.83;0.70;;;;;;;22.00;63.20;95376.41;5088019;28;20446;-59
2023/08/15 01:17:34;;;;;;;0.50;0.43;;;;;;;22.12;64.74;95374.47;5113754;28;20880;-59
2023/08/15 01:20:08;;;;;;;1.60;0.50;;;;;;;22.00;62.40;95377.19;5113280;28;20479;-58
2023/08/15 01:22:44;;;;;;;0.70;0.70;;;;;;;22.14;63.16;95382.22;5113541;28;20912;-59
2023/08/15 01:25:14;;;;;;;1.37;0.60;;;;;;;22.07;63.40;95377.41;5113251;28;20517;-59
2023/08/15 01:27:42;;;;;;;3.37;0.70;;;;;;;21.87;63.24;95378.34;5113274;28;20519;-59
2023/08/15 01:30:12;;;;;;;0.50;0.40;;;;;;;21.01;63.52;95221.44;5113430;28;20444;-59
2023/08/15 01:32:53;;;;;;;0.50;0.40;;;;;;;21.97;63.19;95374.38;5112709;28;20956;-60
2023/08/15 01:35:31;;;;;;;4.83;0.53;;;;;;;21.87;63.19;95370.22;5112905;28;20530;-59
2023/08/15 01:38:02;;;;;;;0.50;0.47;;;;;;;21.93;63.40;95374.28;5113333;28;20875;-59
2023/08/15 01:40:35;;;;;;;0.60;0.30;;;;;;;21.94;63.17;95356.16;5112886;28;20443;-59
2023/08/15 01:43:06;;;;;;;0.90;0.90;;;;;;;21.90;63.28;95371.47;5113167;28;20967;-59
2023/08/15 01:45:35;;;;;;;0.67;0.57;;;;;;;21.78;63.05;95307.47;5112744;28;20815;-60
2023/08/15 01:48:04;;;;;;;0.60;0.60;;;;;;;22.04;62.51;95353.00;5112820;28;20443;-59
2023/08/15 01:50:32;;;;;;;0.60;0.40;;;;;;;22.22;63.72;95358.91;5113083;28;20451;-59
2023/08/15 01:53:01;;;;;;;0.70;0.60;;;;;;;22.11;62.40;95364.03;5112239;28;20440;-59
2023/08/15 01:55:29;;;;;;;0.53;0.50;;;;;;;22.07;62.12;95349.63;5112486;28;20488;-59
2023/08/15 01:57:59;;;;;;;1.00;0.97;;;;;;;21.99;63.16;95361.31;5112272;28;20531;-59
2023/08/15 02:00:27;;;;;;;0.60;0.40;;;;;;;21.93;61.81;95362.69;5112481;28;20558;-59
2023/08/15 02:02:55;;;;;;;0.80;0.80;;;;;;;21.85;62.14;95358.19;5112574;28;20501;-59
2023/08/15 02:05:24;;;;;;;0.80;0.80;;;;;;;21.86;62.37;95351.66;5112638;28;20510;-59
2023/08/15 02:07:52;;;;;;;0.53;0.50;;;;;;;21.87;62.08;95347.84;5112819;28;20436;-59
2023/08/15 02:10:20;;;;;;;0.50;0.50;;;;;;;21.90;63.22;95309.41;5112591;28;20440;-59
2023/08/15 02:12:49;;;;;;;0.90;0.90;;;;;;;22.14;61.56;95344.41;5112448;28;20463;-59
2023/08/15 02:15:18;;;;;;;0.97;0.60;;;;;;;22.03;61.28;95344.13;5112766;28;20428;-59
2023/08/15 02:17:47;;;;;;;0.60;0.57;;;;;;;21.66;61.69;95287.81;5111969;28;20439;-59
2023/08/15 02:20:15;;;;;;;0.87;0.70;;;;;;;22.20;61.13;95347.69;5112163;28;20475;-60
2023/08/15 02:22:43;;;;;;;0.40;0.30;;;;;;;22.21;61.17;95344.66;5111887;28;20493;-59
2023/08/15 02:25:12;;;;;;;0.80;0.80;;;;;;;22.23;61.32;95355.09;5112033;28;20447;-59
2023/08/15 02:27:40;;;;;;;0.60;0.43;;;;;;;22.44;61.84;95342.97;5111670;28;20443;-59
2023/08/15 02:30:09;;;;;;;0.80;0.80;;;;;;;22.41;60.72;95349.09;5112123;28;20871;-60
2023/08/15 02:32:39;;;;;;;1.13;0.70;;;;;;;22.11;61.34;95348.59;5111682;28;20439;-60
2023/08/15 02:35:09;;;;;;;0.50;0.40;;;;;;;22.24;61.43;95346.66;5112463;28;20440;-60
2023/08/15 02:37:37;;;;;;;0.60;0.40;;;;;;;22.34;61.18;95343.47;5112287;28;20494;-60
2023/08/15 02:40:08;;;;;;;0.60;0.30;;;;;;;22.29;60.88;95349.09;5111403;28;21007;-59
2023/08/15 02:42:36;;;;;;;0.53;0.50;;;;;;;22.08;61.96;95348.50;5111983;28;20435;-60
2023/08/15 02:45:06;;;;;;;0.40;0.30;;;;;;;22.18;62.32;95350.72;5111895;28;20929;-59
2023/08/15 02:47:35;;;;;;;0.40;0.30;;;;;;;22.30;63.12;95352.59;5112283;28;20467;-60
2023/08/15 02:50:06;;;;;;;0.50;0.30;;;;;;;22.32;61.51;95347.63;5111100;28;20471;-60
2023/08/15 02:52:34;;;;;;;0.50;0.40;;;;;;;22.23;61.76;95353.19;5112247;28;20988;-60
2023/08/15 02:55:02;;;;;;;0.60;0.50;;;;;;;21.86;61.78;95298.50;5098284;28;20522;-60
2023/08/15 02:57:31;;;;;;;0.50;0.40;;;;;;;22.03;62.09;95335.25;5111214;28;20822;-60
2023/08/15 02:59:59;;;;;;;0.40;0.30;;;;;;;22.18;62.01;95356.13;5111650;28;20471;-60
2023/08/15 03:02:28;;;;;;;0.40;0.30;;;;;;;22.15;62.46;95359.50;5118023;28;20474;-60
2023/08/15 03:04:57;;;;;;;0.50;0.40;;;;;;;21.80;63.57;95320.63;5118360;28;20867;-60
2023/08/15 03:07:26;;;;;;;0.40;0.30;;;;;;;22.15;63.29;95362.19;5118694;27;20431;-60
2023/08/15 03:09:55;;;;;;;0.50;0.40;;;;;;;22.25;62.62;95364.44;5091461;28;20435;-60
2023/08/15 03:12:23;;;;;;;0.60;0.30;;;;;;;22.32;63.07;95366.53;5117771;28;20534;-59
2023/08/15 03:14:51;;;;;;;0.40;0.30;;;;;;;22.08;63.06;95365.50;5118497;27;20854;-59
2023/08/15 03:17:21;;;;;;;0.60;0.40;;;;;;;21.95;63.43;95357.75;5118018;28;20523;-59
2023/08/15 03:19:50;;;;;;;0.40;0.27;;;;;;;21.98;63.54;95367.88;5118313;27;20473;-61
2023/08/15 03:22:19;;;;;;;0.50;0.40;;;;;;;22.10;64.51;95367.84;5117824;27;20440;-60
2023/08/15 03:24:48;;;;;;;1.97;0.30;;;;;;;22.16;63.69;95373.78;5118459;28;20435;-59
2023/08/15 03:27:17;;;;;;;1.03;0.30;;;;;;;22.24;63.47;95375.59;5118486;27;20884;-59
2023/08/15 03:29:45;;;;;;;1.90;0.40;;;;;;;22.28;63.60;95377.25;5118410;28;20435;-60
2023/08/15 03:32:14;;;;;;;0.50;0.30;;;;;;;22.22;63.43;95373.22;5118094;28;20538;-60
2023/08/15 03:34:42;;;;;;;0.60;0.50;;;;;;;22.10;64.68;95373.25;5118334;27;20444;-60
2023/08/15 03:37:10;;;;;;;0.40;0.20;;;;;;;22.20;63.63;95380.06;5117592;28;20431;-59
2023/08/15 03:39:38;;;;;;;0.50;0.33;;;;;;;21.99;63.77;95377.53;5118091;28;20499;-60
2023/08/15 03:42:08;;;;;;;0.97;0.40;;;;;;;21.90;63.94;95371.47;5118091;27;20431;-59
2023/08/15 03:44:37;;;;;;;0.60;0.60;;;;;;;21.44;64.72;95316.84;5118199;28;20443;-59
2023/08/15 03:47:05;;;;;;;1.57;1.33;;;;;;;21.94;64.38;95370.44;5118065;27;20435;-59
2023/08/15 03:49:34;;;;;;;0.60;0.40;;;;;;;22.35;64.21;95377.47;5117983;27;20587;-59
2023/08/15 03:52:02;;;;;;;0.50;0.30;;;;;;;22.45;63.97;95384.28;5118297;27;20496;-59
2023/08/15 03:54:30;;;;;;;0.40;0.23;;;;;;;22.62;62.74;95382.13;5118120;27;20468;-58
2023/08/15 03:56:58;;;;;;;0.47;0.40;;;;;;;22.90;62.52;95395.63;5117497;27;20986;-59
2023/08/15 03:59:29;;;;;;;2.00;0.53;;;;;;;22.54;63.38;95391.09;5117174;28;20535;-59
2023/08/15 04:01:58;;;;;;;0.60;0.53;;;;;;;22.52;63.30;95387.97;5091659;28;20444;-59
2023/08/15 04:04:26;;;;;;;0.50;0.30;;;;;;;22.48;63.14;95387.09;5117622;27;20431;-58
2023/08/15 04:06:54;;;;;;;0.40;0.30;;;;;;;22.50;63.35;95387.53;5118124;28;20494;-58
2023/08/15 04:09:23;;;;;;;0.70;0.57;;;;;;;22.64;63.92;95385.25;5117769;28;20530;-58
2023/08/15 04:11:51;;;;;;;0.50;0.40;;;;;;;22.64;63.65;95390.66;5117186;28;20475;-59
2023/08/15 04:14:19;;;;;;;0.43;0.37;;;;;;;22.75;63.50;95396.38;5112242;28;20961;-59
2023/08/15 04:16:49;;;;;;;0.50;0.30;;;;;;;22.59;63.73;95395.50;5114340;28;20443;-57
2023/08/15 04:19:18;;;;;;;0.80;0.40;;;;;;;22.58;63.96;95394.72;5114405;28;20439;-54
2023/08/15 04:21:46;;;;;;;0.80;0.63;;;;;;;22.52;64.18;95387.19;5114366;28;20475;-51
2023/08/15 04:24:14;;;;;;;0.50;0.40;;;;;;;22.82;64.46;95398.50;5114323;28;20961;-51
2023/08/15 04:26:42;;;;;;;0.50;0.40;;;;;;;22.94;62.87;95390.31;5114632;28;20791;-51
2023/08/15 04:29:11;;;;;;;0.50;0.40;;;;;;;22.86;62.56;95346.09;5114127;28;20435;-51
2023/08/15 04:31:39;;;;;;;0.60;0.50;;;;;;;23.18;63.03;95403.69;5114294;28;20431;-52
2023/08/15 04:34:09;;;;;;;1.33;0.60;;;;;;;22.96;63.85;95396.94;5114016;28;20822;-53
2023/08/15 04:36:43;;;;;;;0.63;0.50;;;;;;;22.79;62.44;95356.72;5114187;28;20497;-53
2023/08/15 04:39:11;;;;;;;0.40;0.30;;;;;;;23.14;62.16;95400.91;5114259;28;20810;-52
2023/08/15 04:41:41;;;;;;;0.80;0.43;;;;;;;23.34;62.76;95393.69;5113785;28;20972;-53
2023/08/15 04:44:10;;;;;;;0.40;0.30;;;;;;;23.07;61.87;95348.56;5114025;28;20448;-54
2023/08/15 04:46:38;;;;;;;0.40;0.30;;;;;;;23.46;62.30;95404.47;5113821;28;20432;-53
2023/08/15 04:49:07;;;;;;;0.50;0.30;;;;;;;23.59;61.85;95402.47;5114000;28;20521;-53
2023/08/15 04:51:37;;;;;;;0.50;0.30;;;;;;;23.54;61.47;95392.69;5113903;28;20440;-54
2023/08/15 04:54:05;;;;;;;4.77;0.47;;;;;;;23.55;61.74;95398.88;5113762;28;20485;-54
2023/08/15 04:56:33;;;;;;;0.50;0.37;;;;;;;23.57;62.22;95405.53;5113685;28;21026;-53
2023/08/15 04:59:02;;;;;;;0.40;0.20;;;;;;;23.64;61.77;95399.50;5113751;28;20447;-53
2023/08/15 05:01:30;;;;;;;0.50;0.40;;;;;;;23.63;63.20;95404.09;5113184;28;20531;-53
2023/08/15 05:03:58;;;;;;;0.47;0.43;;;;;;;23.59;63.14;95414.06;5113409;28;20483;-52
2023/08/15 05:06:27;;;;;;;0.40;0.27;;;;;;;23.63;63.03;95412.22;5113593;28;20806;-52
2023/08/15 05:08:56;;;;;;;0.40;0.40;;;;;;;23.80;64.85;95409.19;5113508;28;20471;-52
2023/08/15 05:11:25;;;;;;;0.73;0.30;;;;;;;23.88;64.17;95404.72;5113717;28;20432;-54
2023/08/15 05:13:53;;;;;;;0.60;0.40;;;;;;;23.76;63.63;95411.00;5113636;28;20435;-53
2023/08/15 05:16:21;;;;;;;0.50;0.30;;;;;;;23.54;65.04;95405.41;5113128;28;20443;-52
2023/08/15 05:18:50;;;;;;;0.50;0.50;;;;;;;23.75;62.64;95403.25;5113492;28;20497;-54
2023/08/15 05:21:18;;;;;;;0.73;0.73;;;;;;;23.28;63.05;95355.28;5112791;28;20721;-53
2023/08/15 05:23:46;;;;;;;0.47;0.33;;;;;;;23.58;65.04;95404.38;5113180;28;20440;-53
2023/08/15 05:26:16;;;;;;;0.47;0.30;;;;;;;23.55;65.39;95413.22;5087268;28;20436;-53
2023/08/15 05:28:44;;;;;;;0.40;0.30;;;;;;;23.56;68.10;95403.94;5112957;28;20813;-53
2023/08/15 05:31:15;;;;;;;0.50;0.40;;;;;;;23.87;65.80;95403.16;5113277;28;20443;-53
2023/08/15 05:33:43;;;;;;;0.60;0.33;;;;;;;23.88;66.69;95400.06;5099469;28;20448;-53
2023/08/15 05:36:12;;;;;;;0.57;0.40;;;;;;;23.81;67.11;95397.22;5113320;28;20446;-53
2023/08/15 05:38:40;;;;;;;0.63;0.50;;;;;;;24.09;65.47;95393.59;5112675;28;20432;-53
2023/08/15 05:41:09;;;;;;;0.40;0.20;;;;;;;23.68;65.11;95367.91;5113484;27;20530;-53
2023/08/15 05:43:38;;;;;;;0.40;0.30;;;;;;;23.95;66.96;95394.84;5113302;28;20450;-53
2023/08/15 05:46:07;;;;;;;0.40;0.30;;;;;;;24.04;64.70;95402.75;5113054;28;20463;-52
2023/08/15 05:48:37;;;;;;;0.70;0.60;;;;;;;24.08;65.25;95398.25;5112478;28;20476;-53
2023/08/15 05:51:05;;;;;;;0.90;0.50;;;;;;;24.06;65.52;95405.13;5112992;28;20448;-52
2023/08/15 05:53:33;;;;;;;0.40;0.23;;;;;;;24.38;64.01;95399.31;5112084;28;20492;-52
2023/08/15 05:56:02;;;;;;;0.40;0.30;;;;;;;24.63;62.67;95399.81;5113075;27;20465;-52
2023/08/15 05:58:30;;;;;;;0.50;0.40;;;;;;;24.76;60.98;95392.34;5112544;28;20868;-53
2023/08/15 06:01:00;;;;;;;0.83;0.83;;;;;;;24.51;62.67;95399.97;5112140;28;20463;-53
2023/08/15 06:03:28;;;;;;;0.60;0.57;;;;;;;24.67;63.34;95395.25;5112356;28;20442;-52
2023/08/15 06:06:16;;;;;;;0.40;0.33;;;;;;;24.72;63.44;95389.53;5112179;28;20836;-48
2023/08/15 06:08:45;;;;;;;2.50;0.60;;;;;;;24.69;62.63;95379.44;5112778;28;20444;-48
2023/08/15 06:11:16;;;;;;;0.40;0.30;;;;;;;24.94;61.69;95378.03;5112091;28;20523;-49
2023/08/15 06:13:44;;;;;;;0.50;0.40;;;;;;;25.13;61.69;95382.63;5112392;28;20937;-48
2023/08/15 06:16:14;;;;;;;0.40;0.30;;;;;;;25.25;62.72;95375.09;5093182;28;20983;-48
2023/08/15 06:18:42;;;;;;;1.33;1.30;;;;;;;25.30;61.80;95357.72;5112415;28;20447;-49
2023/08/15 06:21:11;;;;;;;0.83;0.83;;;;;;;25.34;62.17;95382.22;5111602;28;20474;-49
2023/08/15 06:23:39;;;;;;;0.80;0.80;;;;;;;25.42;61.56;95352.13;5112479;28;20448;-49
2023/08/15 06:26:08;;;;;;;0.87;0.60;;;;;;;25.37;62.15;95370.66;5111998;28;20519;-49
2023/08/15 06:28:36;;;;;;;0.90;0.77;;;;;;;25.46;63.28;95382.06;5112509;28;20432;-49
2023/08/15 06:31:07;;;;;;;0.77;0.40;;;;;;;25.78;61.50;95377.94;5111432;28;20475;-49
2023/08/15 06:33:36;;;;;;;0.90;0.90;;;;;;;25.72;61.11;95371.25;5112135;28;20436;-49
2023/08/15 06:36:05;;;;;;;15.27;0.93;;;;;;;25.76;64.04;95369.38;5111610;28;20532;-49
2023/08/15 06:38:33;;;;;;;0.80;0.60;;;;;;;26.06;61.17;95364.78;5111508;28;20446;-49
2023/08/15 06:41:02;;;;;;;1.07;0.60;;;;;;;26.26;60.83;95363.53;5112205;28;20467;-49
2023/08/15 06:43:31;;;;;;;2.53;0.40;;;;;;;26.13;60.56;95361.44;5111741;28;20452;-49
2023/08/15 06:45:59;;;;;;;0.97;0.97;;;;;;;25.96;61.11;95361.94;5111654;28;21041;-49
2023/08/15 06:48:28;;;;;;;0.70;0.70;;;;;;;25.98;60.89;95349.56;5111632;28;20486;-61
2023/08/15 06:51:00;;;;;;;1.13;1.13;;;;;;;26.03;61.75;95357.41;5111912;28;20448;-63
2023/08/15 06:53:29;;;;;;;0.70;0.50;;;;;;;26.13;61.67;95359.50;5112134;28;20840;-62
2023/08/15 06:55:57;;;;;;;1.53;1.43;;;;;;;26.04;60.83;95356.22;5112218;28;20436;-63
2023/08/15 06:58:25;;;;;;;1.20;0.93;;;;;;;26.08;59.73;95359.00;5111391;28;20459;-62
2023/08/15 07:00:55;;;;;;;0.83;0.77;;;;;;;25.86;61.58;95363.31;5111730;28;20477;-62
2023/08/15 07:03:24;;;;;;;1.17;0.83;;;;;;;25.79;61.98;95366.72;5111291;28;21044;-52
2023/08/15 07:05:52;;;;;;;1.10;1.07;;;;;;;25.73;61.63;95364.66;5112152;28;20440;-52
2023/08/15 07:08:22;;;;;;;2.80;0.70;;;;;;;25.75;61.69;95370.53;5111684;28;20444;-52
2023/08/15 07:10:55;;;;;;;0.90;0.80;;;;;;;25.83;61.15;95366.78;5111408;28;20443;-53
2023/08/15 07:13:23;;;;;;;0.60;0.53;;;;;;;26.19;61.31;95354.50;5111979;28;20442;-53
2023/08/15 07:15:55;;;;;;;0.50;0.40;;;;;;;26.24;61.16;95348.75;5111443;28;20929;-53
2023/08/15 07:18:24;;;;;;;1.20;1.10;;;;;;;26.09;59.62;95352.41;5111776;28;20440;-53
2023/08/15 07:20:53;;;;;;;0.73;0.73;;;;;;;25.77;59.59;95290.28;5111358;28;20979;-53
2023/08/15 07:23:24;;;;;;;1.17;1.07;;;;;;;26.35;60.10;95357.84;5111057;28;20475;-53
2023/08/15 07:25:53;;;;;;;0.70;0.70;;;;;;;26.61;59.99;95352.38;5110996;28;20428;-53
2023/08/15 07:28:21;;;;;;;0.53;0.40;;;;;;;26.65;59.70;95358.63;5111901;28;20938;-53
2023/08/15 07:30:49;;;;;;;0.70;0.70;;;;;;;26.64;59.76;95359.75;5111463;28;20846;-53
2023/08/15 07:33:18;;;;;;;2.20;1.03;;;;;;;26.60;59.58;95350.00;5111378;28;20451;-53
2023/08/15 07:35:46;;;;;;;0.93;0.90;;;;;;;26.54;59.64;95335.19;5111009;28;20492;-53
2023/08/15 07:38:14;;;;;;;1.23;0.97;;;;;;;26.59;59.39;95343.03;5111458;28;20440;-54
2023/08/15 07:40:46;;;;;;;0.50;0.40;;;;;;;26.60;59.72;95345.34;5110741;28;20431;-53
2023/08/15 07:43:15;;;;;;;0.40;0.40;;;;;;;26.77;59.61;95352.16;5111410;28;20532;-54
2023/08/15 07:45:43;;;;;;;1.80;0.60;;;;;;;26.18;59.07;95302.13;5104414;28;20472;-54
2023/08/15 07:48:13;;;;;;;0.80;0.80;;;;;;;26.65;59.54;95355.13;5107867;28;20479;-53
2023/08/15 07:50:42;;;;;;;1.13;1.00;;;;;;;26.58;59.24;95349.59;5115172;28;20447;-54
2023/08/15 07:53:10;;;;;;;1.27;1.03;;;;;;;26.63;59.09;95352.00;5114862;28;21023;-53
2023/08/15 07:55:38;;;;;;;1.30;1.20;;;;;;;26.92;58.44;95349.25;5114877;28;20447;-53
2023/08/15 07:58:12;;;;;;;1.40;1.30;;;;;;;26.82;57.20;95324.63;5114776;28;20435;-54
2023/08/15 08:00:46;;;;;;;0.87;0.87;;;;;;;27.04;57.68;95313.59;5114933;28;20822;-53
2023/08/15 08:03:16;;;;;;;0.70;0.40;;;;;;;27.70;57.68;95328.97;5115030;28;20506;-53
2023/08/15 08:05:47;;;;;;;0.83;0.83;;;;;;;27.76;56.15;95339.53;5114848;28;20461;-55
2023/08/15 08:08:16;;;;;;;0.70;0.60;;;;;;;27.82;55.97;95329.84;5114814;28;20431;-53
2023/08/15 08:10:44;;;;;;;0.83;0.83;;;;;;;28.22;55.52;95335.19;5114935;28;20443;-53
2023/08/15 08:13:16;;;;;;;0.60;0.60;;;;;;;28.24;55.42;95327.41;5114376;28;20518;-54
2023/08/15 08:15:47;;;;;;;0.77;0.77;;;;;;;28.43;54.74;95329.88;5114304;28;20430;-53
2023/08/15 08:18:16;;;;;;;0.73;0.50;;;;;;;27.86;54.82;95278.88;5114846;28;20442;-53
2023/08/15 08:20:44;;;;;;;1.27;0.70;;;;;;;28.19;54.43;95330.50;5114408;28;20443;-53
2023/08/15 08:23:13;;;;;;;0.60;0.60;;;;;;;27.67;55.10;95324.31;5114345;28;21140;-53
2023/08/15 08:25:41;;;;;;;9.90;1.00;;;;;;;27.93;55.92;95328.00;5114500;28;20439;-53
2023/08/15 08:28:10;;;;;;;0.90;0.90;;;;;;;27.99;55.59;95310.13;5114754;28;20439;-53
2023/08/15 08:30:40;;;;;;;0.80;0.60;;;;;;;28.16;55.28;95332.03;5114339;27;20822;-53
2023/08/15 08:33:09;;;;;;;0.50;0.50;;;;;;;28.59;55.31;95322.13;5114575;28;20444;-54
2023/08/15 08:35:37;;;;;;;0.70;0.70;;;;;;;28.52;54.87;95324.81;5114471;28;20432;-54
2023/08/15 08:38:06;;;;;;;0.60;0.60;;;;;;;28.38;54.67;95321.25;5110334;28;20433;-55
2023/08/15 08:40:34;;;;;;;0.67;0.67;;;;;;;27.98;54.68;95322.94;5107768;28;21005;-56
2023/08/15 08:43:04;;;;;;;0.70;0.60;;;;;;;28.09;54.93;95320.31;5106411;28;20583;-56
2023/08/15 08:45:36;;;;;;;0.90;0.70;;;;;;;28.21;54.90;95322.72;5114277;28;20443;-55
2023/08/15 08:48:10;;;;;;;0.50;0.40;;;;;;;28.13;55.70;95318.41;5113417;28;20435;-56
2023/08/15 08:50:39;;;;;;;0.90;0.80;;;;;;;28.12;55.26;95314.91;5113945;28;20944;-55
2023/08/15 08:53:07;;;;;;;1.50;1.40;;;;;;;27.93;54.30;95314.38;5114260;28;20949;-55
2023/08/15 08:55:37;;;;;;;1.00;1.00;;;;;;;28.31;54.62;95311.09;5114157;28;20428;-56
2023/08/15 08:58:06;;;;;;;2.77;0.63;;;;;;;28.30;54.66;95265.94;5113449;28;20442;-56
2023/08/15 09:00:35;;;;;;;0.60;0.50;;;;;;;28.49;53.83;95275.75;5113816;28;20529;-56
2023/08/15 09:03:05;;;;;;;5.13;1.60;;;;;;;29.29;53.48;95304.44;5112671;28;20511;-54
2023/08/15 09:05:34;;;;;;;0.90;0.87;;;;;;;29.91;51.88;95282.94;5113903;28;20432;-54
2023/08/15 09:08:03;;;;;;;0.97;0.97;;;;;;;29.44;51.99;95259.56;5112594;27;20442;-54
2023/08/15 09:10:32;;;;;;;1.13;1.03;;;;;;;29.51;52.62;95306.00;5113033;28;20435;-54
2023/08/15 09:13:03;;;;;;;1.30;1.20;;;;;;;29.82;52.20;95296.25;5113259;28;20439;-54
2023/08/15 09:15:32;;;;;;;0.87;0.87;;;;;;;30.00;52.13;95300.50;5113066;28;20532;-55
2023/08/15 09:18:06;;;;;;;0.97;0.93;;;;;;;30.06;50.84;95298.13;5112887;28;20473;-53
2023/08/15 09:20:45;;;;;;;1.90;1.00;;;;;;;30.07;50.87;95292.28;5113413;28;20551;-54
2023/08/15 09:23:14;;;;;;;2.10;2.00;;;;;;;30.36;51.13;95286.78;5113434;28;20470;-53
2023/08/15 09:25:42;;;;;;;0.70;0.60;;;;;;;30.10;51.52;95277.84;5113265;28;20438;-54
2023/08/15 09:28:10;;;;;;;0.80;0.80;;;;;;;29.74;51.06;95216.22;5113442;28;20815;-54
2023/08/15 09:30:39;;;;;;;0.80;0.80;;;;;;;30.29;51.72;95276.59;5113090;28;20431;-55
2023/08/15 09:33:09;;;;;;;1.23;0.50;;;;;;;30.70;50.92;95277.63;5113345;28;20435;-54
2023/08/15 09:35:38;;;;;;;0.50;0.50;;;;;;;30.73;50.09;95248.69;5113015;28;20467;-54
2023/08/15 09:38:25;;;;;;;0.80;0.40;;;;;;;30.68;48.57;95263.56;5113073;28;20443;-54
2023/08/15 09:40:54;;;;;;;0.70;0.60;;;;;;;30.53;49.38;95237.47;5112890;28;20468;-53
2023/08/15 09:43:22;;;;;;;0.70;0.70;;;;;;;30.84;50.74;95271.28;5112947;28;20544;-53
2023/08/15 09:45:52;;;;;;;1.13;0.60;;;;;;;31.31;48.79;95267.09;5113057;28;20439;-53
2023/08/15 09:48:20;;;;;;;0.60;0.60;;;;;;;31.15;48.98;95256.63;5112434;28;20528;-53
2023/08/15 09:50:50;;;;;;;0.60;0.40;;;;;;;31.28;49.68;95257.72;5112808;28;20439;-53
2023/08/15 09:53:22;;;;;;;0.70;0.30;;;;;;;32.03;47.22;95258.63;5099110;28;20430;-51
2023/08/15 09:55:50;;;;;;;0.97;0.73;;;;;;;32.27;46.25;95258.78;5112854;28;20875;-52
2023/08/15 09:58:20;;;;;;;0.77;0.70;;;;;;;33.01;46.72;95249.59;5112408;28;20526;-52
2023/08/15 10:00:50;;;;;;;0.40;0.30;;;;;;;32.88;45.97;95249.38;5113201;28;20441;-52
2023/08/15 10:03:22;;;;;;;0.47;0.40;;;;;;;33.13;44.77;95257.28;5112497;28;20477;-52
2023/08/15 10:05:55;;;;;;;0.60;0.60;;;;;;;33.32;44.13;95247.59;5112745;28;20531;-52
2023/08/15 10:08:24;;;;;;;0.60;0.40;;;;;;;33.71;44.17;95254.00;5113232;28;20484;-52
2023/08/15 10:10:54;;;;;;;3.60;0.80;;;;;;;34.31;43.39;95246.59;5111379;28;20442;-52
2023/08/15 10:13:25;;;;;;;2.00;0.87;;;;;;;35.52;41.04;95242.78;5112484;28;21012;-52
2023/08/15 10:15:55;;;;;;;1.10;0.70;;;;;;;34.82;42.20;95231.41;5111436;28;20816;-52
2023/08/15 10:18:24;;;;;;;1.37;0.80;;;;;;;35.09;40.54;95213.47;5112295;28;20446;-52
2023/08/15 10:20:56;;;;;;;0.87;0.60;;;;;;;35.24;42.53;95182.84;5112522;28;20442;-52
2023/08/15 10:23:29;;;;;;;0.60;0.60;;;;;;;35.67;41.48;95236.47;5112524;28;20466;-52
2023/08/15 10:25:58;;;;;;;1.23;0.50;;;;;;;35.78;40.56;95229.91;5112265;28;20427;-53
2023/08/15 10:28:28;;;;;;;0.70;0.50;;;;;;;35.30;40.21;95233.47;5100545;28;20447;-61
2023/08/15 10:30:56;;;;;;;0.70;0.70;;;;;;;35.78;39.48;95224.41;5110851;28;20196;-60
2023/08/15 10:33:26;;;;;;;0.50;0.50;;;;;;;36.94;37.90;95226.66;5112135;27;20292;-60
2023/08/15 10:36:08;;;;;;;0.80;0.50;;;;;;;37.60;37.67;95225.00;5112300;28;20189;-60
2023/08/15 10:38:40;;;;;;;0.40;0.30;;;;;;;38.08;36.27;95219.75;5111589;28;20193;-61
2023/08/15 10:41:14;;;;;;;1.30;1.20;;;;;;;37.64;35.81;95189.69;5112280;28;20208;-62
2023/08/15 10:43:47;;;;;;;0.73;0.73;;;;;;;37.92;35.67;95216.41;5111711;28;20300;-62
2023/08/15 10:46:18;;;;;;;0.70;0.70;;;;;;;37.82;34.93;95203.69;5111733;28;20738;-62
2023/08/15 10:48:49;;;;;;;0.97;0.60;;;;;;;37.57;37.07;95209.28;5111211;28;20228;-62
2023/08/15 10:51:24;;;;;;;0.80;0.68;;;;;;;38.16;35.08;95203.66;5112126;28;20200;-62
2023/08/15 10:53:54;;;;;;;0.47;0.40;;;;;;;38.17;36.23;95198.91;5085480;28;20250;-61
2023/08/15 10:56:25;;;;;;;0.75;0.60;;;;;;;38.38;37.83;95204.47;5111540;28;20236;-62
2023/08/15 10:58:53;;;;;;;0.95;0.95;;;;;;;38.99;34.43;95195.41;5111025;28;20275;-62
2023/08/15 11:01:24;;;;;;;0.85;0.50;;;;;;;38.49;34.17;95199.31;5110149;28;20196;-62
2023/08/15 11:03:53;;;;;;;0.55;0.50;;;;;;;38.08;35.60;95199.59;5101090;28;20248;-63
2023/08/15 11:06:23;;;;;;;0.43;0.32;;;;;;;37.56;35.10;95188.38;5111312;28;20250;-63
2023/08/15 11:08:53;;;;;;;0.50;0.40;;;;;;;38.57;34.11;95202.59;5112174;28;20197;-63
2023/08/15 11:11:22;;;;;;;0.45;0.40;;;;;;;38.08;34.92;95192.09;5111737;28;20193;-64
2023/08/15 11:13:52;;;;;;;0.95;0.85;;;;;;;38.44;34.34;95186.03;5112191;28;20663;-63
2023/08/15 11:16:22;;;;;;;0.47;0.43;;;;;;;38.79;33.47;95192.25;5111574;28;20575;-63
2023/08/15 11:18:51;;;;;;;1.95;0.70;;;;;;;37.74;34.77;95183.00;5111731;28;20666;-63
2023/08/15 11:21:20;;;;;;;1.00;0.60;;;;;;;37.81;34.81;95189.06;5111289;28;20188;-63
2023/08/15 11:23:54;;;;;;;1.13;1.02;;;;;;;37.99;34.81;95188.47;5115384;28;20242;-62
2023/08/15 11:26:25;;;;;;;0.52;0.52;;;;;;;38.58;33.93;95155.03;5115850;28;20214;-63
2023/08/15 11:28:54;;;;;;;2.53;0.40;;;;;;;37.80;33.71;95181.97;5115234;28;20228;-63
2023/08/15 11:31:23;;;;;;;0.40;0.30;;;;;;;38.36;34.26;95183.97;5115180;28;20277;-63
2023/08/15 11:33:52;;;;;;;0.50;0.40;;;;;;;38.90;34.05;95173.22;5115587;28;20200;-62
2023/08/15 11:36:22;;;;;;;0.85;0.40;;;;;;;38.17;33.81;95136.03;5115466;28;20269;-62
2023/08/15 11:38:52;;;;;;;0.40;0.40;;;;;;;39.61;33.61;95168.38;5115448;28;20266;-62
2023/08/15 11:41:20;;;;;;;1.67;0.50;;;;;;;38.50;33.15;95173.16;5115440;28;20724;-65
2023/08/15 11:43:49;;;;;;;0.45;0.40;;;;;;;38.27;33.88;95170.06;5114650;28;20220;-62